createdAt,value
2022-09-12T00:00:31.812Z,11.59
2022-09-12T00:01:31.805Z,11.61
2022-09-12T00:02:31.682Z,11.59
2022-09-12T00:03:31.554Z,11.55
2022-09-12T00:04:31.457Z,11.59
2022-09-12T00:05:31.367Z,11.58
2022-09-12T00:06:31.287Z,11.56
2022-09-12T00:07:31.193Z,11.59
2022-09-12T00:08:31.107Z,11.46
2022-09-12T00:09:31.026Z,11.41
2022-09-12T00:10:30.932Z,11.40
2022-09-12T00:11:30.838Z,11.48
2022-09-12T00:12:30.749Z,11.48
2022-09-12T00:13:30.662Z,11.43
2022-09-12T00:14:30.575Z,11.46
2022-09-12T00:15:30.495Z,11.43
2022-09-12T00:16:30.453Z,11.46
2022-09-12T00:17:30.308Z,11.38
2022-09-12T00:18:30.220Z,11.40
2022-09-12T00:19:30.134Z,11.31
2022-09-12T00:20:30.041Z,11.36
2022-09-12T00:21:29.952Z,11.36
2022-09-12T00:22:29.866Z,11.36
2022-09-12T00:23:29.772Z,11.38
2022-09-12T00:24:29.686Z,11.33
2022-09-12T00:25:29.594Z,11.38
2022-09-12T00:26:29.506Z,11.37
2022-09-12T00:27:30.218Z,11.33
2022-09-12T00:28:29.333Z,11.40
2022-09-12T00:29:29.243Z,11.25
2022-09-12T00:30:29.153Z,11.33
2022-09-12T00:31:29.122Z,11.40
2022-09-12T00:32:28.986Z,11.25
2022-09-12T00:33:28.886Z,11.25
2022-09-12T00:34:28.807Z,11.33
2022-09-12T00:35:28.710Z,11.30
2022-09-12T00:36:28.621Z,11.28
2022-09-12T00:37:28.534Z,11.22
2022-09-12T00:38:28.445Z,11.25
2022-09-12T00:39:28.354Z,11.30
2022-09-12T00:40:28.267Z,11.22
2022-09-12T00:41:28.179Z,11.18
2022-09-12T00:42:28.091Z,11.20
2022-09-12T00:43:27.999Z,11.30
2022-09-12T00:44:27.912Z,11.23
2022-09-12T00:45:27.841Z,11.30
2022-09-12T00:46:27.734Z,11.27
2022-09-12T00:47:27.644Z,11.27
2022-09-12T00:48:27.556Z,11.19
2022-09-12T00:49:27.462Z,11.20
2022-09-12T00:50:27.374Z,11.22
2022-09-12T00:51:27.284Z,11.27
2022-09-12T00:52:27.201Z,11.28
2022-09-12T00:53:27.106Z,11.31
2022-09-12T00:54:27.020Z,11.12
2022-09-12T00:55:26.930Z,11.13
2022-09-12T00:56:26.864Z,11.13
2022-09-12T00:57:26.755Z,11.16
2022-09-12T00:58:26.666Z,11.15
2022-09-12T00:59:26.582Z,11.13
2022-09-12T01:00:26.489Z,11.11
2022-09-12T01:01:29.282Z,11.16
2022-09-12T01:02:26.346Z,11.09
2022-09-12T01:03:26.226Z,11.09
2022-09-12T01:04:26.131Z,11.12
2022-09-12T01:05:26.046Z,11.12
2022-09-12T01:06:25.957Z,11.11
2022-09-12T01:07:25.869Z,11.08
2022-09-12T01:08:25.776Z,11.03
2022-09-12T01:09:25.689Z,11.05
2022-09-12T01:10:25.598Z,11.03
2022-09-12T01:11:25.516Z,10.97
2022-09-12T01:12:25.422Z,11.05
2022-09-12T01:13:25.336Z,11.00
2022-09-12T01:14:25.247Z,11.01
2022-09-12T01:15:25.155Z,10.98
2022-09-12T01:16:25.088Z,10.87
2022-09-12T01:17:24.978Z,10.91
2022-09-12T01:18:24.891Z,10.90
2022-09-12T01:19:24.797Z,10.94
2022-09-12T01:20:24.709Z,10.93
2022-09-12T01:21:24.618Z,10.85
2022-09-12T01:22:24.533Z,10.83
2022-09-12T01:23:24.436Z,10.91
2022-09-12T01:24:24.375Z,10.93
2022-09-12T01:25:24.262Z,10.86
2022-09-12T01:26:24.174Z,10.90
2022-09-12T01:27:24.087Z,10.97
2022-09-12T01:28:23.997Z,11.01
2022-09-12T01:29:23.905Z,10.95
2022-09-12T01:30:23.817Z,10.95
2022-09-12T01:31:23.729Z,10.91
2022-09-12T01:32:23.678Z,10.91
2022-09-12T01:33:23.549Z,10.91
2022-09-12T01:34:23.463Z,10.93
2022-09-12T01:35:23.373Z,10.90
2022-09-12T01:36:23.287Z,10.95
2022-09-12T01:37:23.193Z,10.91
2022-09-12T01:38:23.109Z,10.93
2022-09-12T01:39:23.012Z,10.87
2022-09-12T01:40:22.926Z,10.90
2022-09-12T01:41:22.838Z,10.87
2022-09-12T01:42:22.748Z,10.86
2022-09-12T01:43:22.664Z,10.93
2022-09-12T01:44:22.570Z,10.85
2022-09-12T01:45:22.481Z,10.83
2022-09-12T01:46:22.389Z,10.87
2022-09-12T01:47:22.301Z,10.82
2022-09-12T01:48:22.215Z,10.78
2022-09-12T01:49:22.122Z,10.86
2022-09-12T01:50:22.036Z,10.78
2022-09-12T01:51:21.946Z,10.80
2022-09-12T01:52:21.854Z,10.79
2022-09-12T01:53:21.771Z,10.73
2022-09-12T01:54:21.679Z,10.83
2022-09-12T01:55:21.588Z,10.75
2022-09-12T01:56:21.493Z,10.78
2022-09-12T01:57:21.407Z,10.91
2022-09-12T01:58:21.320Z,10.78
2022-09-12T01:59:21.232Z,10.80
2022-09-12T02:00:21.144Z,10.78
2022-09-12T02:01:21.072Z,10.76
2022-09-12T02:02:20.995Z,10.78
2022-09-12T02:03:20.873Z,10.75
2022-09-12T02:04:20.789Z,10.65
2022-09-12T02:05:20.697Z,10.67
2022-09-12T02:06:20.609Z,10.68
2022-09-12T02:07:20.519Z,10.80
2022-09-12T02:08:20.426Z,10.75
2022-09-12T02:09:20.341Z,10.72
2022-09-12T02:10:20.245Z,10.70
2022-09-12T02:11:20.162Z,10.68
2022-09-12T02:12:20.071Z,10.75
2022-09-12T02:13:19.985Z,10.58
2022-09-12T02:14:19.889Z,10.64
2022-09-12T02:15:19.811Z,10.67
2022-09-12T02:16:19.791Z,10.65
2022-09-12T02:17:19.620Z,10.67
2022-09-12T02:18:19.536Z,10.64
2022-09-12T02:19:19.460Z,10.55
2022-09-12T02:20:43.988Z,10.55
2022-09-12T02:21:19.268Z,10.60
2022-09-12T02:22:19.178Z,10.55
2022-09-12T02:23:19.092Z,10.67
2022-09-12T02:24:19.006Z,10.61
2022-09-12T02:25:18.911Z,10.62
2022-09-12T02:26:18.826Z,10.62
2022-09-12T02:27:18.730Z,10.64
2022-09-12T02:28:18.643Z,10.60
2022-09-12T02:29:18.551Z,10.64
2022-09-12T02:30:18.464Z,10.67
2022-09-12T02:31:18.376Z,10.62
2022-09-12T02:32:18.286Z,10.62
2022-09-12T02:33:18.197Z,10.61
2022-09-12T02:34:18.111Z,10.54
2022-09-12T02:35:18.018Z,10.55
2022-09-12T02:36:17.930Z,10.49
2022-09-12T02:37:17.831Z,10.48
2022-09-12T02:38:17.747Z,10.49
2022-09-12T02:39:17.663Z,10.55
2022-09-12T02:40:17.633Z,10.48
2022-09-12T02:41:17.483Z,10.49
2022-09-12T02:42:17.397Z,10.46
2022-09-12T02:43:17.300Z,10.42
2022-09-12T02:44:17.213Z,10.49
2022-09-12T02:45:17.125Z,10.49
2022-09-12T02:46:17.038Z,10.54
2022-09-12T02:47:16.941Z,10.45
2022-09-12T02:48:16.853Z,10.45
2022-09-12T02:49:16.762Z,10.49
2022-09-12T02:50:16.680Z,10.45
2022-09-12T02:51:20.324Z,10.43
2022-09-12T02:52:16.502Z,10.45
2022-09-12T02:53:16.405Z,10.45
2022-09-12T02:54:16.319Z,10.43
2022-09-12T02:55:16.228Z,10.43
2022-09-12T02:56:16.139Z,10.41
2022-09-12T02:57:19.494Z,10.48
2022-09-12T02:58:15.958Z,10.38
2022-09-12T02:59:15.870Z,10.41
2022-09-12T03:00:15.781Z,10.45
2022-09-12T03:01:15.723Z,10.42
2022-09-12T03:02:15.656Z,10.43
2022-09-12T03:03:15.515Z,10.45
2022-09-12T03:04:15.426Z,10.41
2022-09-12T03:05:15.332Z,10.35
2022-09-12T03:06:15.247Z,10.31
2022-09-12T03:07:15.152Z,10.34
2022-09-12T03:08:15.070Z,10.39
2022-09-12T03:09:14.977Z,10.35
2022-09-12T03:10:14.890Z,10.39
2022-09-12T03:11:14.798Z,10.31
2022-09-12T03:12:14.713Z,10.39
2022-09-12T03:13:14.618Z,10.35
2022-09-12T03:14:14.525Z,10.39
2022-09-12T03:15:14.437Z,10.36
2022-09-12T03:16:14.386Z,10.34
2022-09-12T03:17:14.259Z,10.34
2022-09-12T03:18:14.174Z,10.27
2022-09-12T03:19:14.081Z,10.26
2022-09-12T03:20:13.990Z,10.24
2022-09-12T03:21:13.895Z,10.21
2022-09-12T03:22:13.814Z,10.27
2022-09-12T03:23:13.727Z,10.20
2022-09-12T03:24:13.633Z,10.17
2022-09-12T03:25:13.542Z,10.21
2022-09-12T03:26:13.458Z,10.24
2022-09-12T03:27:13.364Z,10.24
2022-09-12T03:28:13.275Z,10.18
2022-09-12T03:29:13.191Z,10.17
2022-09-12T03:30:13.095Z,10.12
2022-09-12T03:31:13.008Z,10.23
2022-09-12T03:32:12.925Z,10.10
2022-09-12T03:33:12.826Z,10.18
2022-09-12T03:34:12.735Z,10.14
2022-09-12T03:35:12.646Z,10.10
2022-09-12T03:36:12.558Z,10.12
2022-09-12T03:37:12.463Z,10.10
2022-09-12T03:38:12.377Z,10.09
2022-09-12T03:39:12.291Z,10.06
2022-09-12T03:40:12.245Z,10.10
2022-09-12T03:41:12.109Z,10.16
2022-09-12T03:42:12.022Z,10.10
2022-09-12T03:43:11.928Z,10.09
2022-09-12T03:44:11.847Z,10.16
2022-09-12T03:45:11.754Z,10.14
2022-09-12T03:46:11.657Z,10.09
2022-09-12T03:47:11.579Z,10.10
2022-09-12T03:48:11.480Z,10.17
2022-09-12T03:49:11.395Z,10.14
2022-09-12T03:50:11.312Z,10.09
2022-09-12T03:51:11.213Z,10.09
2022-09-12T03:52:11.123Z,10.10
2022-09-12T03:53:14.086Z,10.02
2022-09-12T03:54:10.936Z,10.03
2022-09-12T03:55:10.853Z,9.94
2022-09-12T03:56:10.759Z,10.02
2022-09-12T03:57:10.674Z,10.05
2022-09-12T03:58:10.575Z,10.05
2022-09-12T03:59:10.493Z,9.98
2022-09-12T04:00:11.374Z,9.99
2022-09-12T04:01:10.358Z,10.08
2022-09-12T04:02:10.243Z,10.05
2022-09-12T04:03:10.137Z,10.01
2022-09-12T04:04:10.049Z,9.98
2022-09-12T04:05:09.959Z,9.99
2022-09-12T04:06:09.869Z,9.91
2022-09-12T04:07:09.774Z,9.88
2022-09-12T04:08:09.684Z,9.90
2022-09-12T04:09:09.596Z,10.01
2022-09-12T04:10:09.816Z,10.01
2022-09-12T04:11:09.415Z,9.94
2022-09-12T04:12:09.330Z,9.90
2022-09-12T04:13:17.892Z,10.05
2022-09-12T04:15:13.523Z,9.98
2022-09-12T04:16:13.469Z,9.99
2022-09-12T04:17:13.328Z,9.99
2022-09-12T04:18:13.240Z,9.88
2022-09-12T04:19:13.152Z,9.88
2022-09-12T04:20:13.059Z,9.84
2022-09-12T04:21:12.973Z,9.96
2022-09-12T04:22:12.881Z,9.94
2022-09-12T04:23:12.789Z,9.87
2022-09-12T04:24:12.712Z,9.98
2022-09-12T04:25:12.615Z,9.94
2022-09-12T04:26:12.518Z,9.90
2022-09-12T04:27:12.431Z,9.87
2022-09-12T04:28:12.342Z,9.88
2022-09-12T04:29:12.256Z,9.90
2022-09-12T04:30:12.164Z,9.93
2022-09-12T04:31:12.073Z,9.87
2022-09-12T04:32:11.982Z,9.81
2022-09-12T04:33:11.895Z,9.83
2022-09-12T04:34:11.808Z,9.91
2022-09-12T04:35:11.715Z,9.87
2022-09-12T04:36:11.626Z,9.93
2022-09-12T04:37:11.535Z,9.93
2022-09-12T04:38:11.445Z,9.90
2022-09-12T04:39:11.352Z,9.93
2022-09-12T04:40:11.317Z,9.94
2022-09-12T04:41:11.178Z,9.88
2022-09-12T04:42:11.081Z,9.99
2022-09-12T04:43:14.424Z,9.93
2022-09-12T04:44:10.903Z,9.91
2022-09-12T04:45:10.817Z,9.85
2022-09-12T04:46:10.785Z,9.85
2022-09-12T04:47:10.638Z,9.94
2022-09-12T04:48:10.546Z,9.88
2022-09-12T04:49:10.457Z,9.87
2022-09-12T04:50:10.368Z,9.88
2022-09-12T04:51:10.284Z,9.84
2022-09-12T04:52:10.186Z,9.84
2022-09-12T04:53:10.093Z,9.91
2022-09-12T04:54:10.011Z,9.98
2022-09-12T04:55:09.919Z,10.02
2022-09-12T04:56:09.819Z,10.16
2022-09-12T04:57:09.736Z,10.14
2022-09-12T04:58:09.644Z,10.14
2022-09-12T04:59:09.556Z,10.09
2022-09-12T05:00:09.475Z,10.02
2022-09-12T05:01:09.443Z,9.96
2022-09-12T05:02:09.317Z,10.02
2022-09-12T05:03:09.196Z,9.98
2022-09-12T05:04:09.109Z,10.05
2022-09-12T05:05:09.020Z,9.98
2022-09-12T05:06:08.925Z,9.99
2022-09-12T05:07:08.836Z,9.93
2022-09-12T05:08:08.750Z,10.01
2022-09-12T05:09:08.655Z,10.01
2022-09-12T05:10:08.571Z,10.01
2022-09-12T05:11:08.480Z,10.02
2022-09-12T05:12:08.391Z,9.99
2022-09-12T05:13:08.299Z,10.01
2022-09-12T05:14:08.211Z,9.99
2022-09-12T05:15:08.125Z,10.01
2022-09-12T05:16:08.117Z,9.93
2022-09-12T05:17:07.936Z,10.12
2022-09-12T05:18:07.846Z,9.99
2022-09-12T05:19:07.759Z,10.09
2022-09-12T05:20:07.670Z,10.08
2022-09-12T05:21:07.577Z,10.09
2022-09-12T05:22:07.489Z,10.09
2022-09-12T05:23:07.404Z,10.14
2022-09-12T05:24:07.308Z,10.12
2022-09-12T05:25:07.223Z,10.09
2022-09-12T05:26:07.126Z,10.09
2022-09-12T05:27:07.045Z,10.05
2022-09-12T05:28:06.949Z,10.10
2022-09-12T05:29:06.859Z,10.12
2022-09-12T05:30:06.766Z,10.10
2022-09-12T05:31:06.713Z,10.18
2022-09-12T05:32:06.592Z,10.10
2022-09-12T05:33:06.502Z,10.17
2022-09-12T05:34:06.415Z,10.17
2022-09-12T05:35:06.319Z,10.21
2022-09-12T05:36:06.232Z,10.18
2022-09-12T05:37:06.143Z,10.21
2022-09-12T05:38:06.051Z,10.21
2022-09-12T05:39:05.962Z,10.28
2022-09-12T05:40:05.894Z,10.24
2022-09-12T05:41:05.786Z,10.34
2022-09-12T05:42:05.694Z,10.30
2022-09-12T05:43:05.606Z,10.30
2022-09-12T05:44:05.513Z,10.41
2022-09-12T05:45:05.427Z,10.35
2022-09-12T05:46:05.386Z,10.38
2022-09-12T05:47:05.249Z,10.41
2022-09-12T05:48:05.148Z,10.39
2022-09-12T05:49:05.062Z,10.42
2022-09-12T05:50:04.980Z,10.45
2022-09-12T05:51:04.887Z,10.45
2022-09-12T05:52:04.789Z,10.41
2022-09-12T05:53:04.706Z,10.35
2022-09-12T05:54:04.613Z,10.49
2022-09-12T05:55:04.527Z,10.45
2022-09-12T05:56:04.435Z,10.48
2022-09-12T05:57:04.345Z,10.58
2022-09-12T05:58:04.255Z,10.49
2022-09-12T05:59:04.168Z,10.52
2022-09-12T06:00:04.079Z,10.57
2022-09-12T06:01:04.028Z,10.49
2022-09-12T06:02:03.920Z,10.55
2022-09-12T06:03:03.816Z,10.57
2022-09-12T06:04:03.720Z,10.64
2022-09-12T06:05:03.630Z,10.65
2022-09-12T06:06:03.539Z,10.75
2022-09-12T06:07:03.450Z,10.68
2022-09-12T06:08:03.359Z,10.76
2022-09-12T06:09:03.274Z,10.68
2022-09-12T06:10:03.180Z,10.67
2022-09-12T06:11:03.089Z,10.73
2022-09-12T06:12:03.002Z,10.78
2022-09-12T06:13:02.914Z,10.82
2022-09-12T06:14:02.822Z,10.80
2022-09-12T06:15:02.735Z,10.80
2022-09-12T06:16:02.641Z,10.85
2022-09-12T06:17:02.593Z,10.90
2022-09-12T06:18:02.465Z,10.86
2022-09-12T06:19:02.378Z,10.94
2022-09-12T06:20:02.285Z,10.97
2022-09-12T06:21:02.199Z,10.98
2022-09-12T06:22:02.109Z,10.98
2022-09-12T06:23:02.019Z,11.03
2022-09-12T06:24:01.926Z,11.16
2022-09-12T06:25:01.839Z,11.12
2022-09-12T06:26:01.748Z,11.27
2022-09-12T06:27:01.658Z,11.30
2022-09-12T06:28:01.569Z,11.34
2022-09-12T06:29:01.488Z,11.41
2022-09-12T06:30:01.382Z,11.45
2022-09-12T06:31:01.339Z,11.46
2022-09-12T06:32:01.209Z,11.55
2022-09-12T06:33:01.123Z,11.58
2022-09-12T06:34:01.032Z,11.64
2022-09-12T06:35:00.942Z,11.67
2022-09-12T06:36:00.856Z,11.69
2022-09-12T06:37:00.768Z,11.79
2022-09-12T06:38:00.679Z,11.89
2022-09-12T06:39:00.587Z,11.89
2022-09-12T06:40:01.901Z,11.93
2022-09-12T06:41:00.415Z,12.04
2022-09-12T06:42:00.317Z,12.08
2022-09-12T06:43:00.229Z,12.15
2022-09-12T06:44:00.146Z,12.21
2022-09-12T06:45:00.066Z,12.32
2022-09-12T06:46:00.005Z,12.41
2022-09-12T06:46:59.893Z,12.40
2022-09-12T06:47:59.789Z,12.50
2022-09-12T06:48:59.716Z,12.54
2022-09-12T06:49:59.608Z,12.59
2022-09-12T06:50:59.519Z,12.77
2022-09-12T06:51:59.432Z,12.73
2022-09-12T06:52:59.349Z,12.91
2022-09-12T06:53:59.247Z,12.87
2022-09-12T06:54:59.172Z,12.88
2022-09-12T06:55:59.077Z,13.05
2022-09-12T06:56:58.987Z,13.06
2022-09-12T06:57:58.895Z,13.19
2022-09-12T06:58:58.813Z,13.11
2022-09-12T06:59:58.723Z,13.21
2022-09-12T07:00:59.180Z,13.30
2022-09-12T07:01:58.607Z,13.42
2022-09-12T07:02:58.461Z,13.43
2022-09-12T07:03:58.362Z,13.46
2022-09-12T07:04:58.277Z,13.54
2022-09-12T07:05:58.193Z,13.55
2022-09-12T07:06:58.105Z,13.51
2022-09-12T07:07:58.019Z,13.65
2022-09-12T07:08:57.933Z,13.67
2022-09-12T07:09:57.851Z,13.86
2022-09-12T07:10:57.749Z,13.86
2022-09-12T07:11:57.662Z,13.94
2022-09-12T07:12:57.577Z,13.97
2022-09-12T07:13:57.488Z,14.11
2022-09-12T07:14:57.398Z,14.11
2022-09-12T07:15:57.308Z,14.16
2022-09-12T07:16:57.240Z,14.26
2022-09-12T07:17:57.136Z,14.44
2022-09-12T07:18:57.051Z,14.49
2022-09-12T07:19:56.987Z,14.53
2022-09-12T07:20:56.876Z,14.55
2022-09-12T07:21:58.822Z,14.74
2022-09-12T07:22:56.698Z,14.66
2022-09-12T07:23:56.608Z,14.74
2022-09-12T07:24:56.518Z,14.86
2022-09-12T07:25:56.433Z,14.83
2022-09-12T07:26:56.348Z,14.97
2022-09-12T07:27:56.259Z,15.04
2022-09-12T07:29:07.831Z,15.04
2022-09-12T07:29:56.077Z,15.22
2022-09-12T07:30:56.036Z,15.29
2022-09-12T07:31:55.912Z,15.27
2022-09-12T07:32:55.821Z,15.40
2022-09-12T07:33:55.850Z,15.51
2022-09-12T07:34:55.648Z,15.59
2022-09-12T07:35:55.556Z,15.56
2022-09-12T07:36:55.470Z,15.63
2022-09-12T07:37:55.387Z,15.69
2022-09-12T07:38:57.449Z,15.73
2022-09-12T07:39:55.263Z,15.69
2022-09-12T07:40:55.124Z,15.77
2022-09-12T07:41:55.043Z,15.85
2022-09-12T07:42:54.952Z,15.93
2022-09-12T07:43:54.862Z,16.03
2022-09-12T07:44:54.771Z,15.98
2022-09-12T07:45:54.709Z,16.10
2022-09-12T07:46:54.605Z,16.08
2022-09-12T07:47:54.514Z,16.22
2022-09-12T07:48:54.430Z,16.28
2022-09-12T07:49:54.338Z,16.33
2022-09-12T07:50:54.261Z,16.40
2022-09-12T07:51:54.166Z,16.52
2022-09-12T07:52:54.081Z,16.61
2022-09-12T07:53:54.000Z,16.67
2022-09-12T07:54:53.906Z,16.73
2022-09-12T07:55:53.825Z,16.72
2022-09-12T07:56:53.739Z,16.72
2022-09-12T07:57:53.652Z,16.80
2022-09-12T07:58:53.565Z,16.87
2022-09-12T07:59:53.578Z,16.95
2022-09-12T08:00:53.397Z,17.09
2022-09-12T08:01:53.304Z,17.02
2022-09-12T08:02:53.255Z,17.13
2022-09-12T08:03:53.126Z,17.25
2022-09-12T08:04:53.044Z,17.30
2022-09-12T08:05:52.963Z,17.28
2022-09-12T08:06:52.877Z,17.38
2022-09-12T08:07:57.213Z,17.54
2022-09-12T08:08:52.706Z,17.59
2022-09-12T08:09:52.613Z,17.62
2022-09-12T08:10:52.527Z,17.68
2022-09-12T08:11:52.446Z,17.75
2022-09-12T08:12:52.362Z,17.69
2022-09-12T08:13:55.377Z,17.78
2022-09-12T08:14:52.188Z,17.84
2022-09-12T08:15:52.107Z,17.93
2022-09-12T08:16:52.012Z,17.86
2022-09-12T08:17:51.930Z,17.97
2022-09-12T08:18:51.847Z,18.08
2022-09-12T08:19:51.754Z,18.15
2022-09-12T08:20:51.687Z,18.26
2022-09-12T08:21:51.591Z,18.31
2022-09-12T08:22:51.517Z,18.39
2022-09-12T08:23:51.484Z,18.45
2022-09-12T08:24:51.332Z,18.52
2022-09-12T08:25:51.250Z,18.52
2022-09-12T08:26:51.168Z,18.57
2022-09-12T08:27:51.080Z,18.66
2022-09-12T08:28:50.994Z,18.81
2022-09-12T08:29:50.911Z,18.85
2022-09-12T08:30:50.855Z,18.91
2022-09-12T08:31:55.163Z,18.97
2022-09-12T08:32:50.652Z,18.88
2022-09-12T08:33:50.568Z,19.05
2022-09-12T08:34:50.483Z,19.04
2022-09-12T08:35:50.400Z,19.16
2022-09-12T08:36:50.317Z,19.23
2022-09-12T08:37:50.232Z,19.27
2022-09-12T08:38:50.146Z,19.34
2022-09-12T08:39:50.095Z,19.41
2022-09-12T08:40:49.974Z,19.50
2022-09-12T08:41:49.892Z,19.60
2022-09-12T08:42:49.826Z,19.57
2022-09-12T08:43:52.005Z,19.62
2022-09-12T08:44:49.640Z,19.67
2022-09-12T08:45:49.590Z,19.74
2022-09-12T08:46:49.471Z,19.82
2022-09-12T08:47:49.383Z,19.89
2022-09-12T08:48:49.302Z,19.86
2022-09-12T08:49:49.209Z,19.96
2022-09-12T08:50:49.988Z,20.07
2022-09-12T08:51:49.042Z,19.86
2022-09-12T08:52:48.957Z,19.92
2022-09-12T08:53:48.879Z,19.92
2022-09-12T08:54:48.795Z,19.92
2022-09-12T08:55:48.707Z,19.90
2022-09-12T08:56:48.625Z,19.94
2022-09-12T08:57:48.544Z,20.04
2022-09-12T08:58:48.457Z,20.05
2022-09-12T08:59:48.426Z,20.19
2022-09-12T09:00:48.291Z,20.26
2022-09-12T09:01:48.244Z,20.36
2022-09-12T09:02:48.171Z,20.46
2022-09-12T09:03:48.242Z,20.53
2022-09-12T09:04:47.953Z,20.60
2022-09-12T09:05:47.869Z,20.65
2022-09-12T09:06:47.783Z,20.77
2022-09-12T09:07:47.702Z,20.73
2022-09-12T09:08:47.620Z,20.71
2022-09-12T09:09:47.534Z,20.65
2022-09-12T09:10:47.446Z,20.70
2022-09-12T09:11:47.388Z,20.71
2022-09-12T09:12:47.285Z,20.67
2022-09-12T09:13:47.370Z,20.68
2022-09-12T09:14:47.122Z,20.65
2022-09-12T09:15:47.075Z,20.68
2022-09-12T09:16:46.948Z,20.77
2022-09-12T09:17:46.864Z,20.67
2022-09-12T09:18:46.786Z,20.67
2022-09-12T09:19:50.135Z,20.68
2022-09-12T09:20:46.619Z,20.61
2022-09-12T09:21:46.539Z,20.65
2022-09-12T09:22:46.451Z,20.65
2022-09-12T09:23:46.443Z,20.63
2022-09-12T09:24:46.282Z,20.70
2022-09-12T09:25:46.197Z,20.60
2022-09-12T09:26:46.120Z,20.56
2022-09-12T09:27:46.034Z,20.64
2022-09-12T09:28:45.952Z,20.55
2022-09-12T09:29:45.880Z,20.58
2022-09-12T09:30:45.830Z,20.70
2022-09-12T09:31:45.694Z,20.77
2022-09-12T09:32:45.617Z,20.70
2022-09-12T09:33:45.542Z,20.75
2022-09-12T09:34:45.450Z,20.79
2022-09-12T09:35:45.365Z,20.77
2022-09-12T09:36:45.288Z,20.75
2022-09-12T09:37:45.201Z,20.82
2022-09-12T09:38:45.126Z,20.86
2022-09-12T09:39:45.112Z,20.89
2022-09-12T09:40:44.947Z,20.90
2022-09-12T09:41:44.868Z,20.85
2022-09-12T09:42:44.784Z,20.90
2022-09-12T09:43:44.698Z,21.04
2022-09-12T09:44:44.620Z,21.03
2022-09-12T09:45:47.311Z,21.07
2022-09-12T09:46:44.445Z,21.14
2022-09-12T09:47:44.374Z,21.11
2022-09-12T09:48:44.326Z,21.01
2022-09-12T09:49:44.198Z,21.18
2022-09-12T09:50:44.112Z,21.05
2022-09-12T09:51:44.038Z,21.01
2022-09-12T09:52:43.954Z,21.07
2022-09-12T09:53:43.865Z,21.08
2022-09-12T09:54:43.784Z,21.20
2022-09-12T09:55:43.704Z,21.30
2022-09-12T09:56:43.618Z,21.40
2022-09-12T09:57:43.560Z,21.44
2022-09-12T09:58:43.453Z,21.56
2022-09-12T09:59:43.393Z,21.56
2022-09-12T10:00:43.286Z,21.65
2022-09-12T10:01:43.233Z,21.73
2022-09-12T10:02:43.150Z,21.77
2022-09-12T10:03:43.122Z,21.73
2022-09-12T10:04:42.956Z,21.85
2022-09-12T10:05:42.876Z,21.90
2022-09-12T10:06:42.795Z,21.93
2022-09-12T10:07:42.705Z,21.93
2022-09-12T10:08:42.659Z,21.97
2022-09-12T10:09:42.537Z,22.00
2022-09-12T10:10:42.457Z,22.00
2022-09-12T10:11:45.810Z,22.03
2022-09-12T10:12:42.294Z,21.90
2022-09-12T16:24:08.507Z,23.61
2022-09-12T16:24:55.243Z,23.56
2022-09-12T16:30:26.487Z,23.45
2022-09-12T16:31:26.556Z,23.37
2022-09-12T17:36:47.153Z,19.57
2022-09-12T17:37:47.162Z,19.59
2022-09-12T18:06:16.609Z,17.56
2022-09-12T18:07:16.518Z,17.57
2022-09-12T18:14:28.664Z,17.24
2022-09-12T18:15:18.876Z,17.04
2022-09-12T22:34:06.537Z,15.36
2022-09-12T22:35:04.966Z,15.38
2022-09-12T22:36:04.901Z,15.33
2022-09-12T22:37:04.826Z,15.26
2022-09-12T22:38:04.705Z,15.26
2022-09-12T22:39:04.661Z,15.30
2022-09-12T22:40:04.632Z,15.26
2022-09-12T22:41:04.480Z,15.22
2022-09-12T22:42:04.400Z,15.20
2022-09-12T22:43:04.312Z,15.17
2022-09-12T22:44:04.190Z,15.22
2022-09-12T22:45:04.138Z,15.19
2022-09-12T22:46:04.080Z,15.20
2022-09-12T22:47:03.985Z,15.20
2022-09-12T22:48:07.331Z,15.30
2022-09-12T22:49:03.776Z,15.22
2022-09-12T22:50:03.751Z,15.20
2022-09-12T22:51:03.602Z,15.17
2022-09-12T22:52:03.503Z,15.05
2022-09-12T22:53:12.082Z,14.97
2022-09-12T22:55:07.719Z,15.01
2022-09-12T22:56:07.609Z,15.04
2022-09-12T22:57:07.526Z,15.08
2022-09-12T22:58:07.445Z,15.08
2022-09-12T22:59:07.357Z,14.99
2022-09-12T23:00:07.265Z,14.99
2022-09-12T23:01:07.299Z,15.01
2022-09-12T23:02:07.095Z,15.05
2022-09-12T23:03:07.048Z,14.97
2022-09-12T23:04:06.924Z,14.93
2022-09-12T23:05:06.838Z,14.99
2022-09-12T23:06:06.748Z,14.92
2022-09-12T23:07:06.678Z,14.95
2022-09-12T23:08:06.575Z,14.85
2022-09-12T23:09:06.492Z,14.90
2022-09-12T23:10:06.402Z,14.89
2022-09-12T23:11:06.319Z,14.87
2022-09-12T23:12:06.226Z,14.89
2022-09-12T23:13:06.144Z,14.90
2022-09-12T23:14:06.058Z,14.96
2022-09-12T23:15:05.973Z,14.95
2022-09-12T23:16:05.984Z,14.85
2022-09-12T23:17:05.803Z,14.79
2022-09-12T23:18:05.712Z,14.78
2022-09-12T23:19:05.628Z,14.82
2022-09-12T23:20:05.558Z,14.69
2022-09-12T23:21:05.456Z,14.70
2022-09-12T23:22:05.366Z,14.70
2022-09-12T23:23:05.277Z,14.70
2022-09-12T23:24:05.199Z,14.67
2022-09-12T23:25:05.106Z,14.66
2022-09-12T23:26:05.022Z,14.64
2022-09-12T23:27:04.933Z,14.71
2022-09-12T23:28:04.843Z,14.66
2022-09-12T23:29:04.858Z,14.73
2022-09-12T23:30:04.674Z,14.70
2022-09-12T23:31:04.630Z,14.70
2022-09-12T23:32:04.502Z,14.69
2022-09-12T23:33:04.414Z,14.64
2022-09-12T23:34:04.323Z,14.70
2022-09-12T23:35:04.239Z,14.67
2022-09-12T23:36:04.156Z,14.66
2022-09-12T23:37:04.070Z,14.63
2022-09-12T23:38:03.980Z,14.56
2022-09-12T23:39:03.897Z,14.64
2022-09-12T23:40:03.822Z,14.63
2022-09-12T23:41:03.718Z,14.61
2022-09-12T23:42:03.633Z,14.63
2022-09-12T23:43:03.546Z,14.56
2022-09-12T23:44:03.460Z,14.58
2022-09-12T23:45:03.370Z,14.52
2022-09-12T23:46:03.328Z,14.56
2022-09-12T23:47:03.213Z,14.59
2022-09-12T23:48:03.112Z,14.64
2022-09-12T23:49:03.030Z,14.59
2022-09-12T23:50:02.936Z,14.66
2022-09-12T23:51:02.860Z,14.69
2022-09-12T23:52:02.769Z,14.77
2022-09-12T23:53:02.754Z,14.73
2022-09-12T23:54:02.609Z,14.66
2022-09-12T23:55:02.508Z,14.63
2022-09-12T23:56:02.421Z,14.86
2022-09-12T23:57:02.339Z,14.95
2022-09-12T23:58:02.252Z,15.26
2022-09-12T23:59:02.160Z,15.58
